createdAt,value
2022-12-17T00:01:10.240Z,40.83
2022-12-17T00:03:56.991Z,41.00
2022-12-17T00:06:44.080Z,43.47
2022-12-17T00:09:29.839Z,41.33
2022-12-17T00:12:15.675Z,40.17
2022-12-17T00:15:01.435Z,36.53
2022-12-17T00:17:47.169Z,38.73
2022-12-17T00:20:32.934Z,38.43
2022-12-17T00:23:24.440Z,36.17
2022-12-17T00:26:15.238Z,41.03
2022-12-17T00:29:01.653Z,37.30
2022-12-17T00:31:49.910Z,40.30
2022-12-17T00:34:35.928Z,42.00
2022-12-17T00:37:21.836Z,37.00
2022-12-17T00:40:07.587Z,39.83
2022-12-17T00:42:53.344Z,40.13
2022-12-17T00:45:42.032Z,37.43
2022-12-17T00:48:28.026Z,40.53
2022-12-17T00:51:14.377Z,38.90
2022-12-17T00:54:00.104Z,35.13
2022-12-17T00:56:46.669Z,39.08
2022-12-17T00:59:32.455Z,37.67
2022-12-17T01:02:18.399Z,38.30
2022-12-17T01:05:04.219Z,38.30
2022-12-17T01:07:50.172Z,35.97
2022-12-17T01:10:35.966Z,35.80
2022-12-17T01:13:22.299Z,34.07
2022-12-17T01:16:07.914Z,32.43
2022-12-17T01:18:53.872Z,33.77
2022-12-17T01:21:42.155Z,32.20
2022-12-17T01:24:27.958Z,32.07
2022-12-17T01:27:13.799Z,31.57
2022-12-17T01:29:59.991Z,33.57
2022-12-17T01:32:45.578Z,31.40
2022-12-17T01:35:32.061Z,33.33
2022-12-17T01:38:17.724Z,31.97
2022-12-17T01:41:03.507Z,28.80
2022-12-17T01:43:55.855Z,32.17
2022-12-17T01:46:44.403Z,31.23
2022-12-17T01:49:31.548Z,31.87
2022-12-17T01:52:19.498Z,32.73
2022-12-17T01:55:06.479Z,32.07
2022-12-17T01:57:53.852Z,32.83
2022-12-17T02:00:40.214Z,32.20
2022-12-17T02:03:34.470Z,33.33
2022-12-17T02:07:06.809Z,32.43
2022-12-17T02:10:12.885Z,30.50
2022-12-17T02:13:11.207Z,32.50
2022-12-17T02:16:08.943Z,33.87
2022-12-17T02:19:14.353Z,33.13
2022-12-17T02:22:05.338Z,33.50
2022-12-17T02:25:11.245Z,32.37
2022-12-17T02:27:57.142Z,33.70
2022-12-17T02:30:42.959Z,33.90
2022-12-17T02:33:31.389Z,33.93
2022-12-17T02:36:24.093Z,32.60
2022-12-17T02:39:09.913Z,34.17
2022-12-17T02:42:15.051Z,36.07
2022-12-17T02:45:02.478Z,35.10
2022-12-17T02:47:48.699Z,34.93
2022-12-17T02:50:34.887Z,34.60
2022-12-17T02:53:22.809Z,33.67
2022-12-17T02:56:08.553Z,35.27
2022-12-17T02:58:54.535Z,30.80
2022-12-17T03:01:40.471Z,31.90
2022-12-17T03:04:26.160Z,32.03
2022-12-17T03:07:12.319Z,34.20
2022-12-17T03:09:57.749Z,32.23
2022-12-17T03:12:43.915Z,33.47
2022-12-17T03:15:29.777Z,34.47
2022-12-17T03:18:15.768Z,33.93
2022-12-17T03:21:01.660Z,34.93
2022-12-17T03:23:47.384Z,33.20
2022-12-17T03:26:33.025Z,29.20
2022-12-17T03:29:18.896Z,32.87
2022-12-17T03:32:07.807Z,34.00
2022-12-17T03:34:53.451Z,32.17
2022-12-17T03:37:39.395Z,32.07
2022-12-17T03:40:26.113Z,31.73
2022-12-17T03:43:12.051Z,33.13
2022-12-17T03:45:58.223Z,31.03
2022-12-17T03:48:44.269Z,33.53
2022-12-17T03:51:30.112Z,35.27
2022-12-17T03:54:15.758Z,33.13
2022-12-17T03:57:01.971Z,35.57
2022-12-17T03:59:47.736Z,34.57
2022-12-17T04:02:34.032Z,35.47
2022-12-17T04:05:20.505Z,35.07
2022-12-17T04:08:06.973Z,33.17
2022-12-17T04:11:00.523Z,33.53
2022-12-17T04:13:46.538Z,34.37
2022-12-17T04:16:32.629Z,35.37
2022-12-17T04:19:18.967Z,33.43
2022-12-17T04:22:04.740Z,35.47
2022-12-17T04:24:50.528Z,34.47
2022-12-17T04:27:36.374Z,34.23
2022-12-17T04:30:23.255Z,35.70
2022-12-17T04:33:08.887Z,35.30
2022-12-17T04:36:02.754Z,33.33
2022-12-17T04:38:48.569Z,34.00
2022-12-17T04:41:34.782Z,35.10
2022-12-17T04:44:20.891Z,34.13
2022-12-17T04:47:07.018Z,35.27
2022-12-17T04:49:52.734Z,33.23
2022-12-17T04:52:38.541Z,33.13
2022-12-17T04:55:24.713Z,33.87
2022-12-17T04:58:10.580Z,35.43
2022-12-17T05:00:56.441Z,34.10
2022-12-17T05:03:42.182Z,32.87
2022-12-17T05:06:29.068Z,34.87
2022-12-17T05:09:15.132Z,34.90
2022-12-17T05:12:00.987Z,35.43
2022-12-17T05:14:47.268Z,37.10
2022-12-17T05:17:32.779Z,35.93
2022-12-17T05:20:18.615Z,36.87
2022-12-17T05:23:04.457Z,36.17
2022-12-17T05:25:50.217Z,34.03
2022-12-17T05:28:36.038Z,38.23
2022-12-17T05:31:21.853Z,34.53
2022-12-17T05:34:07.507Z,34.70
2022-12-17T05:36:53.367Z,36.83
2022-12-17T05:39:39.065Z,39.47
2022-12-17T05:42:24.917Z,41.27
2022-12-17T05:45:10.732Z,40.23
2022-12-17T05:47:56.696Z,42.03
2022-12-17T05:50:56.283Z,43.27
2022-12-17T05:53:42.288Z,46.60
2022-12-17T05:56:28.281Z,43.17
2022-12-17T05:59:14.377Z,42.30
2022-12-17T06:02:00.234Z,43.80
2022-12-17T06:04:46.511Z,44.73
2022-12-17T06:07:32.301Z,45.60
2022-12-17T06:10:18.181Z,46.80
2022-12-17T06:13:03.997Z,51.17
2022-12-17T06:15:50.106Z,46.07
2022-12-17T06:18:36.409Z,44.73
2022-12-17T06:21:22.805Z,45.13
2022-12-17T06:24:08.405Z,45.93
2022-12-17T06:26:54.295Z,50.43
2022-12-17T06:29:40.117Z,50.40
2022-12-17T06:32:25.967Z,51.33
2022-12-17T06:35:11.662Z,49.97
2022-12-17T06:37:57.513Z,49.13
2022-12-17T06:40:43.216Z,46.63
2022-12-17T06:43:29.027Z,46.60
2022-12-17T06:46:14.942Z,47.33
2022-12-17T06:49:00.894Z,47.07
2022-12-17T06:51:46.649Z,44.83
2022-12-17T06:54:32.433Z,44.53
2022-12-17T06:57:18.022Z,42.90
2022-12-17T07:00:03.955Z,45.90
2022-12-17T07:02:49.831Z,47.97
2022-12-17T07:05:35.919Z,46.50
2022-12-17T07:08:22.035Z,47.43
2022-12-17T07:11:07.706Z,48.00
2022-12-17T07:13:53.411Z,49.00
2022-12-17T07:16:39.874Z,49.03
2022-12-17T07:19:27.440Z,49.73
2022-12-17T07:22:14.672Z,48.67
2022-12-17T07:25:00.485Z,47.10
2022-12-17T07:27:46.698Z,46.00
2022-12-17T07:30:32.326Z,49.07
2022-12-17T07:33:29.372Z,47.10
2022-12-17T07:36:15.253Z,48.33
2022-12-17T07:39:01.005Z,51.63
2022-12-17T07:41:46.592Z,50.20
2022-12-17T07:44:32.351Z,49.63
2022-12-17T07:47:17.921Z,49.60
2022-12-17T07:50:03.815Z,48.07
2022-12-17T07:52:49.542Z,49.00
2022-12-17T07:55:35.198Z,52.53
2022-12-17T07:58:28.876Z,49.40
2022-12-17T08:01:18.789Z,53.87
2022-12-17T08:04:05.470Z,52.10
2022-12-17T08:06:55.117Z,51.07
2022-12-17T08:09:44.257Z,50.77
2022-12-17T08:12:29.979Z,54.23
2022-12-17T08:15:15.835Z,48.83
2022-12-17T08:18:01.602Z,53.40
2022-12-17T08:20:47.899Z,53.20
2022-12-17T08:23:34.366Z,51.73
2022-12-17T08:26:21.748Z,51.27
2022-12-17T08:29:07.919Z,52.17
2022-12-17T08:31:53.763Z,51.50
2022-12-17T08:34:39.450Z,50.90
2022-12-17T08:37:32.761Z,49.63
2022-12-17T08:40:18.774Z,50.40
2022-12-17T08:43:04.512Z,49.47
2022-12-17T08:45:50.375Z,51.40
2022-12-17T08:48:35.888Z,52.70
2022-12-17T08:51:23.730Z,51.97
2022-12-17T08:54:09.323Z,54.10
2022-12-17T08:56:55.154Z,50.00
2022-12-17T08:59:42.851Z,49.67
2022-12-17T09:02:29.233Z,49.93
2022-12-17T09:05:14.952Z,48.38
2022-12-17T09:08:00.587Z,51.07
2022-12-17T09:10:46.427Z,52.40
2022-12-17T09:13:32.509Z,51.47
2022-12-17T09:16:18.019Z,52.87
2022-12-17T09:19:04.647Z,52.37
2022-12-17T09:21:50.899Z,53.77
2022-12-17T09:24:36.608Z,52.53
2022-12-17T09:27:22.434Z,51.40
2022-12-17T09:30:08.334Z,55.78
2022-12-17T09:32:55.692Z,52.33
2022-12-17T09:35:43.528Z,52.03
2022-12-17T09:38:35.922Z,52.78
2022-12-17T09:41:40.302Z,55.22
2022-12-17T09:45:07.241Z,57.00
2022-12-17T09:48:33.300Z,50.63
2022-12-17T09:51:19.179Z,52.30
2022-12-17T09:54:09.145Z,54.83
2022-12-17T09:56:58.305Z,48.70
2022-12-17T09:59:51.519Z,51.03
2022-12-17T10:02:43.647Z,51.03
2022-12-17T10:05:48.688Z,52.20
2022-12-17T10:08:39.987Z,51.55
2022-12-17T10:11:46.887Z,48.73
2022-12-17T10:14:42.836Z,55.10
2022-12-17T10:17:37.358Z,75.43
2022-12-17T10:20:39.950Z,75.53
2022-12-17T10:23:26.083Z,75.63
2022-12-17T10:26:15.630Z,71.20
2022-12-17T10:29:02.012Z,63.43
2022-12-17T10:31:49.387Z,59.80
2022-12-17T10:34:39.631Z,60.97
2022-12-17T10:37:37.501Z,61.03
2022-12-17T10:40:48.195Z,54.67
2022-12-17T10:43:46.476Z,57.57
2022-12-17T10:46:49.084Z,54.87
2022-12-17T10:49:42.202Z,56.53
2022-12-17T10:52:50.515Z,54.73
2022-12-17T10:55:47.401Z,55.83
2022-12-17T10:58:48.327Z,58.63
2022-12-17T11:01:44.779Z,58.93
2022-12-17T11:04:50.633Z,56.13
2022-12-17T11:07:59.852Z,53.53
2022-12-17T11:11:01.665Z,56.53
2022-12-17T11:14:11.144Z,59.07
2022-12-17T11:17:13.811Z,57.77
2022-12-17T11:20:10.162Z,62.67
2022-12-17T11:23:11.500Z,57.50
2022-12-17T11:26:28.510Z,65.70
2022-12-17T11:29:14.829Z,58.50
2022-12-17T11:32:18.295Z,54.50
2022-12-17T11:35:19.701Z,60.13
2022-12-17T11:38:41.369Z,69.07
2022-12-17T11:41:53.232Z,64.65
2022-12-17T11:44:54.392Z,65.50
2022-12-17T11:48:35.575Z,68.40
2022-12-17T11:52:40.149Z,83.10
2022-12-17T11:56:11.814Z,64.27
2022-12-17T11:59:26.507Z,61.70
2022-12-17T12:02:35.860Z,58.40
2022-12-17T12:05:58.224Z,50.77
2022-12-17T12:08:49.083Z,57.10
2022-12-17T12:11:49.547Z,57.17
2022-12-17T12:15:02.486Z,51.73
2022-12-17T12:18:25.585Z,50.20
2022-12-17T12:22:07.424Z,53.30
2022-12-17T12:25:30.080Z,49.30
2022-12-17T12:28:54.135Z,55.30
2022-12-17T12:32:01.090Z,54.00
2022-12-17T12:34:54.388Z,57.03
2022-12-17T12:37:42.172Z,52.13
2022-12-17T12:40:57.264Z,53.47
2022-12-17T12:43:52.605Z,52.50
2022-12-17T12:47:07.235Z,55.10
2022-12-17T12:50:39.696Z,51.10
2022-12-17T12:53:30.958Z,52.33
2022-12-17T12:56:16.833Z,54.90
2022-12-17T12:59:03.152Z,56.00
2022-12-17T13:01:57.304Z,49.70
2022-12-17T13:04:54.408Z,51.83
2022-12-17T13:07:30.357Z,51.00
2022-12-17T13:09:59.466Z,52.57
2022-12-17T13:12:45.806Z,58.13
2022-12-17T13:15:33.389Z,49.70
2022-12-17T13:18:35.560Z,51.90
2022-12-17T13:21:17.372Z,51.07
2022-12-17T13:23:44.681Z,56.70
2022-12-17T13:26:23.226Z,50.87
2022-12-17T13:28:56.546Z,52.70
2022-12-17T13:31:44.990Z,51.23
2022-12-17T13:34:55.079Z,50.90
2022-12-17T13:37:25.172Z,48.47
2022-12-17T13:40:22.218Z,51.57
2022-12-17T13:42:50.426Z,51.83
2022-12-17T13:45:23.831Z,50.00
2022-12-17T13:47:59.339Z,52.97
2022-12-17T13:50:35.624Z,52.37
2022-12-17T13:53:13.226Z,49.73
2022-12-17T13:55:41.224Z,50.17
2022-12-17T13:58:30.427Z,51.03
2022-12-17T14:01:12.545Z,57.33
2022-12-17T14:04:08.641Z,57.80
2022-12-17T14:06:38.776Z,52.37
2022-12-17T14:09:06.941Z,50.23
2022-12-17T14:11:56.035Z,53.93
2022-12-17T14:14:35.562Z,50.33
2022-12-17T14:17:03.415Z,51.07
2022-12-17T14:19:32.705Z,51.73
2022-12-17T14:22:01.211Z,52.57
2022-12-17T14:24:30.031Z,51.53
2022-12-17T14:27:00.783Z,48.07
2022-12-17T14:29:32.676Z,44.00
2022-12-17T14:32:21.420Z,43.60
2022-12-17T14:34:48.995Z,43.30
2022-12-17T14:37:21.939Z,40.63
2022-12-17T14:39:50.463Z,43.27
2022-12-17T14:42:26.125Z,41.17
2022-12-17T14:45:05.520Z,41.77
2022-12-17T14:47:37.922Z,39.77
2022-12-17T14:50:26.214Z,38.10
2022-12-17T14:52:57.551Z,41.73
2022-12-17T14:55:34.254Z,42.13
2022-12-17T14:58:16.323Z,41.93
2022-12-17T15:01:11.233Z,44.87
2022-12-17T15:03:42.999Z,43.93
2022-12-17T15:06:15.457Z,45.00
2022-12-17T15:08:47.066Z,44.93
2022-12-17T15:11:20.124Z,51.83
2022-12-17T15:13:52.834Z,48.17
2022-12-17T15:16:22.027Z,47.43
2022-12-17T15:18:49.858Z,49.37
2022-12-17T15:21:19.274Z,45.87
2022-12-17T15:23:48.467Z,50.63
2022-12-17T15:26:17.457Z,48.63
2022-12-17T15:28:44.870Z,46.03
2022-12-17T15:31:14.943Z,52.77
2022-12-17T15:33:42.898Z,49.10
2022-12-17T15:36:12.156Z,46.00
2022-12-17T15:38:40.253Z,43.97
2022-12-17T15:41:27.030Z,43.53
2022-12-17T15:43:54.254Z,41.53
2022-12-17T15:46:21.856Z,41.63
2022-12-17T15:48:50.634Z,55.03
2022-12-17T15:51:21.235Z,47.03
2022-12-17T15:53:50.022Z,47.10
2022-12-17T15:56:28.958Z,53.03
2022-12-17T15:58:59.671Z,61.37
2022-12-17T16:01:27.589Z,54.17
2022-12-17T16:03:55.172Z,49.57
2022-12-17T16:06:22.826Z,45.47
2022-12-17T16:08:50.093Z,41.93
2022-12-17T16:11:17.648Z,41.33
2022-12-17T16:13:44.904Z,42.50
2022-12-17T16:16:12.484Z,45.57
2022-12-17T16:18:40.149Z,44.83
2022-12-17T16:21:09.619Z,44.50
2022-12-17T16:23:37.808Z,45.37
2022-12-17T16:26:09.255Z,51.93
2022-12-17T16:28:37.918Z,48.27
2022-12-17T16:31:13.852Z,44.27
2022-12-17T16:33:44.147Z,45.60
2022-12-17T16:36:16.285Z,44.17
2022-12-17T16:38:52.769Z,42.97
2022-12-17T16:41:22.136Z,41.03
2022-12-17T16:43:49.570Z,40.50
2022-12-17T16:46:31.372Z,39.20
2022-12-17T16:49:05.183Z,40.73
2022-12-17T16:51:33.092Z,38.90
2022-12-17T16:54:05.270Z,40.37
2022-12-17T16:56:38.127Z,43.83
2022-12-17T16:59:08.484Z,41.70
2022-12-17T17:01:38.318Z,45.07
2022-12-17T17:04:09.314Z,44.97
2022-12-17T17:06:52.242Z,46.87
2022-12-17T17:09:21.061Z,47.97
2022-12-17T17:11:51.738Z,45.97
2022-12-17T17:14:20.041Z,46.93
2022-12-17T17:16:47.629Z,47.00
2022-12-17T17:19:15.256Z,47.17
2022-12-17T17:21:53.976Z,48.43
2022-12-17T17:24:25.593Z,46.07
2022-12-17T17:26:55.205Z,45.17
2022-12-17T17:29:22.591Z,44.93
2022-12-17T17:34:37.877Z,46.63
2022-12-17T17:37:05.554Z,45.47
2022-12-17T17:39:34.383Z,43.90
2022-12-17T17:42:02.681Z,45.77
2022-12-17T17:44:29.937Z,44.37
2022-12-17T17:46:57.816Z,45.67
2022-12-17T17:49:25.276Z,44.27
2022-12-17T17:52:09.000Z,44.50
2022-12-17T17:54:37.513Z,44.93
2022-12-17T17:57:04.994Z,44.43
2022-12-17T17:59:34.165Z,46.63
2022-12-17T18:02:03.573Z,45.30
2022-12-17T18:04:32.152Z,48.60
2022-12-17T18:07:24.167Z,47.20
2022-12-17T18:09:47.136Z,43.53
2022-12-17T18:12:33.106Z,45.00
2022-12-17T18:15:19.306Z,43.20
2022-12-17T18:17:51.488Z,42.20
2022-12-17T18:20:18.946Z,41.53
2022-12-17T18:22:47.172Z,43.17
2022-12-17T18:25:17.003Z,47.20
2022-12-17T18:27:45.052Z,41.67
2022-12-17T18:30:13.733Z,39.50
2022-12-17T18:32:41.534Z,38.60
2022-12-17T18:35:10.326Z,35.57
2022-12-17T18:37:38.663Z,35.70
2022-12-17T18:40:08.163Z,33.93
2022-12-17T18:42:54.583Z,34.30
2022-12-17T18:45:22.584Z,35.73
2022-12-17T18:47:51.336Z,34.93
2022-12-17T18:50:18.672Z,35.90
2022-12-17T18:52:46.208Z,32.83
2022-12-17T18:55:13.689Z,33.57
2022-12-17T18:57:41.178Z,33.93
2022-12-17T19:00:09.550Z,33.33
2022-12-17T19:02:37.179Z,34.60
2022-12-17T19:05:04.873Z,35.27
2022-12-17T19:07:32.308Z,34.77
2022-12-17T19:09:59.497Z,30.60
2022-12-17T19:12:27.079Z,33.07
2022-12-17T19:14:54.311Z,31.40
2022-12-17T19:17:21.774Z,39.10
2022-12-17T19:19:49.106Z,38.83
2022-12-17T19:22:16.848Z,36.67
2022-12-17T19:24:44.129Z,32.83
2022-12-17T19:27:11.671Z,36.77
2022-12-17T19:29:38.869Z,35.33
2022-12-17T19:32:06.438Z,34.30
2022-12-17T19:34:35.194Z,29.03
2022-12-17T19:37:02.800Z,33.50
2022-12-17T19:39:30.015Z,31.20
2022-12-17T19:41:57.488Z,31.03
2022-12-17T19:44:25.220Z,32.43
2022-12-17T19:46:52.768Z,32.77
2022-12-17T19:49:19.967Z,33.50
2022-12-17T19:51:47.490Z,34.10
2022-12-17T19:54:15.624Z,37.17
2022-12-17T19:56:45.593Z,33.17
2022-12-17T19:59:14.024Z,33.90
2022-12-17T20:01:46.521Z,33.07
2022-12-17T20:04:16.525Z,32.67
2022-12-17T20:06:45.372Z,29.90
2022-12-17T20:09:14.104Z,30.70
2022-12-17T20:11:41.949Z,29.63
2022-12-17T20:14:22.544Z,31.00
2022-12-17T20:16:55.395Z,32.60
2022-12-17T20:19:26.540Z,32.47
2022-12-17T20:21:55.072Z,31.20
2022-12-17T20:24:28.821Z,29.73
2022-12-17T20:26:59.555Z,29.97
2022-12-17T20:29:27.462Z,31.20
2022-12-17T20:31:56.157Z,32.37
2022-12-17T20:34:24.639Z,29.47
2022-12-17T20:36:53.775Z,30.50
2022-12-17T20:39:26.586Z,29.50
2022-12-17T20:41:55.944Z,32.33
2022-12-17T20:44:23.478Z,29.40
2022-12-17T20:46:50.935Z,32.30
2022-12-17T20:49:18.129Z,30.70
2022-12-17T20:51:45.676Z,30.67
2022-12-17T20:54:12.962Z,35.70
2022-12-17T20:56:40.814Z,34.87
2022-12-17T20:59:13.175Z,31.20
2022-12-17T21:01:41.265Z,31.07
2022-12-17T21:04:08.742Z,31.40
2022-12-17T21:06:40.677Z,28.80
2022-12-17T21:09:08.891Z,30.37
2022-12-17T21:11:38.841Z,30.30
2022-12-17T21:14:10.034Z,29.47
2022-12-17T21:16:40.014Z,30.70
2022-12-17T21:19:09.523Z,30.43
2022-12-17T21:21:38.690Z,32.03
2022-12-17T21:24:08.322Z,31.50
2022-12-17T21:26:40.024Z,32.30
2022-12-17T21:29:08.875Z,32.27
2022-12-17T21:31:41.580Z,30.47
2022-12-17T21:34:14.579Z,28.70
2022-12-17T21:36:42.538Z,29.80
2022-12-17T21:39:13.412Z,29.50
2022-12-17T21:42:03.920Z,32.77
2022-12-17T21:44:31.224Z,30.97
2022-12-17T21:46:58.849Z,31.07
2022-12-17T21:49:26.203Z,29.23
2022-12-17T21:51:53.889Z,29.17
2022-12-17T21:54:21.187Z,27.87
2022-12-17T21:56:48.992Z,27.13
2022-12-17T21:59:16.459Z,25.70
2022-12-17T22:01:45.430Z,28.07
2022-12-17T22:04:13.011Z,26.43
2022-12-17T22:06:41.668Z,27.33
2022-12-17T22:09:25.901Z,26.27
2022-12-17T22:12:20.876Z,26.47
2022-12-17T22:14:48.234Z,25.53
2022-12-17T22:17:16.334Z,25.80
2022-12-17T22:19:43.610Z,24.60
2022-12-17T22:22:11.178Z,25.70
2022-12-17T22:24:38.596Z,25.97
2022-12-17T22:27:09.490Z,26.43
2022-12-17T22:29:56.247Z,27.13
2022-12-17T22:32:42.407Z,28.17
2022-12-17T22:36:43.667Z,26.43
2022-12-17T22:41:45.146Z,29.03
2022-12-17T22:44:42.466Z,28.07
2022-12-17T22:44:45.959Z,26.67
2022-12-17T22:46:20.775Z,25.33
2022-12-17T22:48:48.465Z,26.47
2022-12-17T22:51:25.101Z,26.93
2022-12-17T22:54:04.513Z,25.33
2022-12-17T22:56:51.117Z,27.10
2022-12-17T22:59:22.009Z,27.37
2022-12-17T23:01:49.290Z,29.50
2022-12-17T23:04:17.315Z,27.20
2022-12-17T23:06:46.077Z,28.37
2022-12-17T23:09:19.224Z,27.27
2022-12-17T23:11:49.083Z,24.83
2022-12-17T23:14:18.414Z,25.40
2022-12-17T23:16:45.825Z,27.43
2022-12-17T23:19:14.347Z,26.03
2022-12-17T23:21:41.852Z,27.00
2022-12-17T23:24:09.633Z,26.83
2022-12-17T23:26:37.741Z,25.97
2022-12-17T23:29:10.900Z,25.57
2022-12-17T23:31:42.820Z,28.17
2022-12-17T23:34:10.419Z,28.73
2022-12-17T23:36:37.848Z,25.47
2022-12-17T23:39:06.320Z,25.43
2022-12-17T23:41:33.879Z,24.60
2022-12-17T23:44:01.800Z,24.13
2022-12-17T23:46:30.684Z,24.80
2022-12-17T23:49:08.574Z,25.20
2022-12-17T23:51:35.780Z,24.70
2022-12-17T23:54:03.660Z,26.90
2022-12-17T23:56:31.047Z,24.50
2022-12-17T23:59:01.503Z,25.83
